createdAt,value
2022-12-31T00:00:49.030Z,9.64
2022-12-31T00:01:49.246Z,9.64
2022-12-31T00:02:49.494Z,9.66
2022-12-31T00:03:49.495Z,9.66
2022-12-31T00:04:49.646Z,9.66
2022-12-31T00:05:49.805Z,9.67
2022-12-31T00:06:49.961Z,9.67
2022-12-31T00:07:50.112Z,9.69
2022-12-31T00:08:50.254Z,9.72
2022-12-31T00:09:50.408Z,9.72
2022-12-31T00:10:50.543Z,9.73
2022-12-31T00:11:50.698Z,9.74
2022-12-31T00:12:50.854Z,9.73
2022-12-31T00:13:50.980Z,9.73
2022-12-31T00:14:51.113Z,9.73
2022-12-31T00:15:51.268Z,9.74
2022-12-31T00:16:51.448Z,9.76
2022-12-31T00:17:51.591Z,9.80
2022-12-31T00:18:51.726Z,9.76
2022-12-31T00:19:51.889Z,9.77
2022-12-31T00:20:52.032Z,9.76
2022-12-31T00:21:52.209Z,9.80
2022-12-31T00:22:52.347Z,9.80
2022-12-31T00:23:52.507Z,9.82
2022-12-31T00:24:52.658Z,9.84
2022-12-31T00:25:52.867Z,9.84
2022-12-31T00:26:52.919Z,9.84
2022-12-31T00:27:53.089Z,9.82
2022-12-31T00:28:53.242Z,9.84
2022-12-31T00:29:53.448Z,9.84
2022-12-31T00:30:53.605Z,9.82
2022-12-31T00:31:53.778Z,9.82
2022-12-31T00:32:53.941Z,9.81
2022-12-31T00:33:54.090Z,9.82
2022-12-31T00:34:54.237Z,9.81
2022-12-31T00:35:54.383Z,9.84
2022-12-31T00:36:54.539Z,9.82
2022-12-31T00:37:54.684Z,9.82
2022-12-31T00:38:54.836Z,9.81
2022-12-31T00:39:54.985Z,9.81
2022-12-31T00:40:55.123Z,9.81
2022-12-31T00:41:55.305Z,9.80
2022-12-31T00:42:55.442Z,9.77
2022-12-31T00:43:55.602Z,9.74
2022-12-31T00:44:55.769Z,9.74
2022-12-31T00:45:55.939Z,9.74
2022-12-31T00:46:56.075Z,9.74
2022-12-31T00:47:56.238Z,9.72
2022-12-31T00:48:56.408Z,9.72
2022-12-31T00:49:56.569Z,9.72
2022-12-31T00:50:56.701Z,9.72
2022-12-31T00:51:56.871Z,9.72
2022-12-31T00:52:57.010Z,9.73
2022-12-31T00:53:57.176Z,9.74
2022-12-31T00:54:57.301Z,9.77
2022-12-31T00:55:57.453Z,9.77
2022-12-31T00:56:57.609Z,9.76
2022-12-31T00:57:57.761Z,9.76
2022-12-31T00:58:57.900Z,9.77
2022-12-31T00:59:58.050Z,9.82
2022-12-31T01:00:58.265Z,9.81
2022-12-31T01:01:58.482Z,9.84
2022-12-31T01:02:58.645Z,9.85
2022-12-31T01:03:58.747Z,9.85
2022-12-31T01:04:58.903Z,9.87
2022-12-31T01:05:59.038Z,9.88
2022-12-31T01:06:59.206Z,9.91
2022-12-31T01:07:59.355Z,9.94
2022-12-31T01:08:59.489Z,9.94
2022-12-31T01:09:59.634Z,9.97
2022-12-31T01:10:59.775Z,10.00
2022-12-31T01:11:59.936Z,10.02
2022-12-31T01:13:00.104Z,10.07
2022-12-31T01:14:00.232Z,10.09
2022-12-31T01:15:00.386Z,10.07
2022-12-31T01:16:00.574Z,10.13
2022-12-31T01:17:00.751Z,10.15
2022-12-31T01:18:00.907Z,10.18
2022-12-31T01:19:01.051Z,10.21
2022-12-31T01:20:01.206Z,10.25
2022-12-31T01:21:01.324Z,10.28
2022-12-31T01:22:01.486Z,10.31
2022-12-31T01:23:01.626Z,10.36
2022-12-31T01:24:01.789Z,10.39
2022-12-31T01:25:01.945Z,10.41
2022-12-31T01:26:02.102Z,10.42
2022-12-31T01:27:02.272Z,10.45
2022-12-31T01:28:02.400Z,10.46
2022-12-31T01:29:02.676Z,10.48
2022-12-31T01:30:02.723Z,10.48
2022-12-31T01:31:02.885Z,10.49
2022-12-31T01:32:03.061Z,10.51
2022-12-31T01:33:03.201Z,10.57
2022-12-31T01:34:03.359Z,10.58
2022-12-31T01:35:03.488Z,10.61
2022-12-31T01:36:03.651Z,10.62
2022-12-31T01:37:03.801Z,10.67
2022-12-31T01:38:03.943Z,10.71
2022-12-31T01:39:04.108Z,10.75
2022-12-31T01:40:04.246Z,10.72
2022-12-31T01:41:04.388Z,10.72
2022-12-31T01:42:04.552Z,10.72
2022-12-31T01:43:04.665Z,10.76
2022-12-31T01:44:04.816Z,10.76
2022-12-31T01:45:04.951Z,10.77
2022-12-31T01:46:05.111Z,10.82
2022-12-31T01:47:05.265Z,10.84
2022-12-31T01:48:05.411Z,10.94
2022-12-31T01:49:05.555Z,10.97
2022-12-31T01:50:05.701Z,11.01
2022-12-31T01:51:05.831Z,11.02
2022-12-31T01:52:05.987Z,11.07
2022-12-31T01:53:06.126Z,11.08
2022-12-31T01:54:06.275Z,11.10
2022-12-31T01:55:06.412Z,11.15
2022-12-31T01:56:06.559Z,11.16
2022-12-31T01:57:06.710Z,11.16
2022-12-31T01:58:06.861Z,11.16
2022-12-31T01:59:06.984Z,11.20
2022-12-31T02:00:07.127Z,11.19
2022-12-31T02:01:07.318Z,11.20
2022-12-31T02:02:07.641Z,11.20
2022-12-31T02:03:07.667Z,11.20
2022-12-31T02:04:07.804Z,11.19
2022-12-31T02:05:07.931Z,11.20
2022-12-31T02:06:08.071Z,11.23
2022-12-31T02:07:08.217Z,11.26
2022-12-31T02:08:08.359Z,11.30
2022-12-31T02:09:08.495Z,11.27
2022-12-31T02:10:08.630Z,11.31
2022-12-31T02:11:08.754Z,11.34
2022-12-31T02:12:08.938Z,11.33
2022-12-31T02:13:09.052Z,11.35
2022-12-31T02:14:09.222Z,11.35
2022-12-31T02:15:09.352Z,11.35
2022-12-31T02:16:09.565Z,11.40
2022-12-31T02:17:09.624Z,11.41
2022-12-31T02:18:09.775Z,11.48
2022-12-31T02:19:09.928Z,11.49
2022-12-31T02:20:10.074Z,11.48
2022-12-31T02:21:17.243Z,11.45
2022-12-31T02:22:10.410Z,11.48
2022-12-31T02:23:10.569Z,11.49
2022-12-31T02:24:10.724Z,11.51
2022-12-31T02:25:10.867Z,11.49
2022-12-31T02:26:11.008Z,11.49
2022-12-31T02:27:11.161Z,11.49
2022-12-31T02:28:11.296Z,11.51
2022-12-31T02:29:11.439Z,11.51
2022-12-31T02:30:11.581Z,11.49
2022-12-31T02:31:11.787Z,11.49
2022-12-31T02:32:12.547Z,11.51
2022-12-31T02:33:12.020Z,11.52
2022-12-31T02:34:12.166Z,11.53
2022-12-31T02:35:12.324Z,11.51
2022-12-31T02:36:12.436Z,11.52
2022-12-31T02:37:12.598Z,11.51
2022-12-31T02:38:12.735Z,11.49
2022-12-31T02:39:12.864Z,11.49
2022-12-31T02:40:12.999Z,11.49
2022-12-31T02:41:13.125Z,11.48
2022-12-31T02:42:13.278Z,11.44
2022-12-31T02:43:13.416Z,11.45
2022-12-31T02:44:13.565Z,11.48
2022-12-31T02:45:13.701Z,11.48
2022-12-31T02:46:13.847Z,11.45
2022-12-31T02:47:13.997Z,11.44
2022-12-31T02:48:14.144Z,11.48
2022-12-31T02:49:14.280Z,11.48
2022-12-31T02:50:14.408Z,11.49
2022-12-31T02:51:14.549Z,11.48
2022-12-31T02:52:14.703Z,11.45
2022-12-31T02:53:14.837Z,11.48
2022-12-31T02:54:14.972Z,11.45
2022-12-31T02:55:15.118Z,11.48
2022-12-31T02:56:15.243Z,11.45
2022-12-31T02:57:15.396Z,11.45
2022-12-31T02:58:15.518Z,11.44
2022-12-31T02:59:15.655Z,11.48
2022-12-31T03:00:15.783Z,11.48
2022-12-31T03:01:16.032Z,11.48
2022-12-31T03:02:16.542Z,11.45
2022-12-31T03:03:16.126Z,11.48
2022-12-31T03:04:16.262Z,11.48
2022-12-31T03:05:16.384Z,11.48
2022-12-31T03:06:16.504Z,11.48
2022-12-31T03:07:16.661Z,11.49
2022-12-31T03:08:16.812Z,11.53
2022-12-31T03:09:16.965Z,11.58
2022-12-31T03:10:17.110Z,11.59
2022-12-31T03:11:17.237Z,11.58
2022-12-31T03:12:17.391Z,11.56
2022-12-31T03:13:17.530Z,11.55
2022-12-31T03:14:17.655Z,11.56
2022-12-31T03:15:17.792Z,11.58
2022-12-31T03:16:17.957Z,11.59
2022-12-31T03:17:18.117Z,11.58
2022-12-31T03:18:18.249Z,11.56
2022-12-31T03:19:18.399Z,11.55
2022-12-31T03:20:18.540Z,11.53
2022-12-31T03:21:18.698Z,11.53
2022-12-31T03:22:18.866Z,11.52
2022-12-31T03:23:19.011Z,11.48
2022-12-31T03:24:19.157Z,11.44
2022-12-31T03:25:19.319Z,11.40
2022-12-31T03:26:19.426Z,11.37
2022-12-31T03:27:19.575Z,11.35
2022-12-31T03:28:19.727Z,11.31
2022-12-31T03:29:19.875Z,11.27
2022-12-31T03:30:20.019Z,11.26
2022-12-31T03:31:20.182Z,11.23
2022-12-31T03:32:20.319Z,11.23
2022-12-31T03:33:20.459Z,11.19
2022-12-31T03:34:20.590Z,11.19
2022-12-31T03:35:20.735Z,11.16
2022-12-31T03:36:20.856Z,11.15
2022-12-31T03:37:21.004Z,11.15
2022-12-31T03:38:21.136Z,11.15
2022-12-31T03:39:21.285Z,11.13
2022-12-31T03:40:21.399Z,11.16
2022-12-31T03:41:21.550Z,11.18
2022-12-31T03:42:21.701Z,11.18
2022-12-31T03:43:21.851Z,11.16
2022-12-31T03:44:21.971Z,11.18
2022-12-31T03:45:22.108Z,11.25
2022-12-31T03:46:22.301Z,11.27
2022-12-31T03:47:22.449Z,11.27
2022-12-31T03:48:22.605Z,11.27
2022-12-31T03:49:22.745Z,11.34
2022-12-31T03:50:22.869Z,11.37
2022-12-31T03:51:23.000Z,11.38
2022-12-31T03:52:23.165Z,11.43
2022-12-31T03:53:23.299Z,11.45
2022-12-31T03:54:23.433Z,11.48
2022-12-31T03:55:23.565Z,11.51
2022-12-31T03:56:23.700Z,11.52
2022-12-31T03:57:23.835Z,11.53
2022-12-31T03:58:23.970Z,11.52
2022-12-31T03:59:24.108Z,11.52
2022-12-31T04:00:24.239Z,11.53
2022-12-31T04:01:24.572Z,11.55
2022-12-31T04:02:28.636Z,11.56
2022-12-31T04:03:25.578Z,11.56
2022-12-31T04:04:24.738Z,11.56
2022-12-31T04:05:24.880Z,11.58
2022-12-31T04:06:25.006Z,11.59
2022-12-31T04:07:25.169Z,11.63
2022-12-31T04:08:25.301Z,11.65
2022-12-31T04:09:25.440Z,11.71
2022-12-31T04:10:25.580Z,11.77
2022-12-31T04:11:25.719Z,11.78
2022-12-31T04:12:25.872Z,11.78
2022-12-31T04:13:26.064Z,11.80
2022-12-31T04:14:26.178Z,11.81
2022-12-31T04:15:26.331Z,11.85
2022-12-31T04:16:26.527Z,11.85
2022-12-31T04:17:26.639Z,11.85
2022-12-31T04:18:26.769Z,11.83
2022-12-31T04:19:26.915Z,11.81
2022-12-31T04:20:27.074Z,11.83
2022-12-31T04:21:33.066Z,11.88
2022-12-31T04:22:28.303Z,11.91
2022-12-31T04:23:27.454Z,11.95
2022-12-31T04:24:27.600Z,11.96
2022-12-31T04:25:27.742Z,11.99
2022-12-31T04:26:27.881Z,11.99
2022-12-31T04:27:28.018Z,11.99
2022-12-31T04:28:28.165Z,12.02
2022-12-31T04:29:28.290Z,12.03
2022-12-31T04:30:28.421Z,12.03
2022-12-31T04:31:28.609Z,12.07
2022-12-31T04:32:28.737Z,12.05
2022-12-31T04:33:28.885Z,12.07
2022-12-31T04:34:29.035Z,12.08
2022-12-31T04:35:29.179Z,12.08
2022-12-31T04:36:29.325Z,12.08
2022-12-31T04:37:29.489Z,12.11
2022-12-31T04:38:29.614Z,12.10
2022-12-31T04:39:29.753Z,12.11
2022-12-31T04:40:29.880Z,12.11
2022-12-31T04:41:30.023Z,12.10
2022-12-31T04:42:30.208Z,12.08
2022-12-31T04:43:30.318Z,12.08
2022-12-31T04:44:30.462Z,12.07
2022-12-31T04:45:30.602Z,12.05
2022-12-31T04:46:30.737Z,12.05
2022-12-31T04:47:30.877Z,12.07
2022-12-31T04:48:31.013Z,12.08
2022-12-31T04:49:31.162Z,12.10
2022-12-31T04:50:31.272Z,12.11
2022-12-31T04:51:31.401Z,12.11
2022-12-31T04:52:34.590Z,12.10
2022-12-31T04:53:32.621Z,12.10
2022-12-31T04:54:31.745Z,12.11
2022-12-31T04:55:31.886Z,12.12
2022-12-31T04:56:32.004Z,12.12
2022-12-31T04:57:32.164Z,12.11
2022-12-31T04:58:32.283Z,12.12
2022-12-31T04:59:32.421Z,12.11
2022-12-31T05:00:32.551Z,12.15
2022-12-31T05:01:32.782Z,12.18
2022-12-31T05:02:32.922Z,12.20
2022-12-31T05:03:33.026Z,12.20
2022-12-31T05:04:33.219Z,12.21
2022-12-31T05:05:33.267Z,12.21
2022-12-31T05:06:33.452Z,12.21
2022-12-31T05:07:33.614Z,12.23
2022-12-31T05:08:33.752Z,12.23
2022-12-31T05:09:33.877Z,12.26
2022-12-31T05:10:34.000Z,12.26
2022-12-31T05:11:34.138Z,12.25
2022-12-31T05:12:34.280Z,12.26
2022-12-31T05:13:34.414Z,12.25
2022-12-31T05:14:34.535Z,12.26
2022-12-31T05:15:34.701Z,12.29
2022-12-31T05:16:34.862Z,12.28
2022-12-31T05:17:35.016Z,12.32
2022-12-31T05:18:35.165Z,12.32
2022-12-31T05:19:35.281Z,12.32
2022-12-31T05:20:35.412Z,12.37
2022-12-31T05:21:35.564Z,12.39
2022-12-31T05:22:35.697Z,12.47
2022-12-31T05:23:35.842Z,12.50
2022-12-31T05:24:35.969Z,12.54
2022-12-31T05:25:36.086Z,12.58
2022-12-31T05:26:36.209Z,12.62
2022-12-31T05:27:36.359Z,12.62
2022-12-31T05:28:36.491Z,12.62
2022-12-31T05:29:36.625Z,12.57
2022-12-31T05:30:36.810Z,12.50
2022-12-31T05:31:36.949Z,12.45
2022-12-31T05:32:37.098Z,12.39
2022-12-31T05:33:37.237Z,12.30
2022-12-31T05:34:37.347Z,12.26
2022-12-31T05:35:37.504Z,12.18
2022-12-31T05:36:37.620Z,12.17
2022-12-31T05:37:37.771Z,12.12
2022-12-31T05:38:37.915Z,12.10
2022-12-31T05:39:38.043Z,12.08
2022-12-31T05:40:38.166Z,12.07
2022-12-31T05:41:38.305Z,12.05
2022-12-31T05:42:38.440Z,12.03
2022-12-31T05:43:38.576Z,11.99
2022-12-31T05:44:38.697Z,11.99
2022-12-31T05:45:38.840Z,12.00
2022-12-31T05:46:38.971Z,11.99
2022-12-31T05:47:39.133Z,11.99
2022-12-31T05:48:39.269Z,11.97
2022-12-31T05:49:39.416Z,11.96
2022-12-31T05:50:39.537Z,11.95
2022-12-31T05:51:39.671Z,11.96
2022-12-31T05:52:42.744Z,11.96
2022-12-31T05:53:40.917Z,11.97
2022-12-31T05:54:40.037Z,11.96
2022-12-31T05:55:40.169Z,11.97
2022-12-31T05:56:40.299Z,11.97
2022-12-31T05:57:40.456Z,11.97
2022-12-31T05:58:40.577Z,11.97
2022-12-31T05:59:40.725Z,11.99
2022-12-31T06:00:40.849Z,11.97
2022-12-31T06:01:41.001Z,11.99
2022-12-31T06:02:41.195Z,11.99
2022-12-31T06:03:41.261Z,11.99
2022-12-31T06:04:41.386Z,11.99
2022-12-31T06:05:41.523Z,12.00
2022-12-31T06:06:41.666Z,12.00
2022-12-31T06:07:41.810Z,12.02
2022-12-31T06:08:41.958Z,12.02
2022-12-31T06:09:42.084Z,12.02
2022-12-31T06:10:42.253Z,12.03
2022-12-31T06:11:42.398Z,12.05
2022-12-31T06:12:42.547Z,12.05
2022-12-31T06:13:42.689Z,12.10
2022-12-31T06:14:45.742Z,12.10
2022-12-31T06:15:42.949Z,12.11
2022-12-31T06:16:43.084Z,12.11
2022-12-31T06:17:43.231Z,12.10
2022-12-31T06:18:43.372Z,12.12
2022-12-31T06:19:43.503Z,12.15
2022-12-31T06:20:43.639Z,12.14
2022-12-31T06:21:43.781Z,12.14
2022-12-31T06:22:43.929Z,12.15
2022-12-31T06:23:44.073Z,12.17
2022-12-31T06:24:44.197Z,12.20
2022-12-31T06:25:44.338Z,12.20
2022-12-31T06:26:44.464Z,12.20
2022-12-31T06:27:44.635Z,12.21
2022-12-31T06:28:44.757Z,12.23
2022-12-31T06:29:44.893Z,12.28
2022-12-31T06:30:45.055Z,12.29
2022-12-31T06:31:45.201Z,12.32
2022-12-31T06:32:45.352Z,12.36
2022-12-31T06:33:45.472Z,12.40
2022-12-31T06:34:45.610Z,12.47
2022-12-31T06:35:45.754Z,12.47
2022-12-31T06:36:45.852Z,12.48
2022-12-31T06:37:45.995Z,12.47
2022-12-31T06:38:46.096Z,12.54
2022-12-31T06:39:46.196Z,12.63
2022-12-31T06:40:46.343Z,12.68
2022-12-31T06:41:46.462Z,12.68
2022-12-31T06:42:46.562Z,12.70
2022-12-31T06:43:46.644Z,12.73
2022-12-31T06:44:46.750Z,12.78
2022-12-31T06:45:46.837Z,12.81
2022-12-31T06:46:46.963Z,12.86
2022-12-31T06:47:47.069Z,12.86
2022-12-31T06:48:47.218Z,12.87
2022-12-31T06:49:47.307Z,12.86
2022-12-31T06:50:47.416Z,12.88
2022-12-31T06:51:47.509Z,12.88
2022-12-31T06:52:47.640Z,12.87
2022-12-31T06:53:47.747Z,12.87
2022-12-31T06:54:47.860Z,12.91
2022-12-31T06:55:47.975Z,12.91
2022-12-31T06:56:48.099Z,12.95
2022-12-31T06:57:48.229Z,12.98
2022-12-31T06:58:48.306Z,13.05
2022-12-31T06:59:48.444Z,13.08
2022-12-31T07:00:48.581Z,13.12
2022-12-31T07:01:48.759Z,13.19
2022-12-31T07:02:48.923Z,13.30
2022-12-31T07:03:48.981Z,13.36
2022-12-31T07:04:49.129Z,13.36
2022-12-31T07:05:49.245Z,13.40
2022-12-31T07:06:49.375Z,13.43
2022-12-31T07:07:49.512Z,13.42
2022-12-31T07:08:49.649Z,13.40
2022-12-31T07:09:49.772Z,13.42
2022-12-31T07:10:49.905Z,13.42
2022-12-31T07:11:50.049Z,13.46
2022-12-31T07:12:50.175Z,13.58
2022-12-31T07:13:50.299Z,13.67
2022-12-31T07:14:50.418Z,13.70
2022-12-31T07:15:50.570Z,13.70
2022-12-31T07:16:50.693Z,13.70
2022-12-31T07:17:50.840Z,13.71
2022-12-31T07:18:50.987Z,13.75
2022-12-31T07:19:57.116Z,13.78
2022-12-31T07:20:52.200Z,13.82
2022-12-31T07:21:51.325Z,13.83
2022-12-31T07:22:51.508Z,13.91
2022-12-31T07:23:51.608Z,13.91
2022-12-31T07:24:51.754Z,13.91
2022-12-31T07:25:51.855Z,13.93
2022-12-31T07:26:56.363Z,13.98
2022-12-31T07:27:53.061Z,14.00
2022-12-31T07:28:52.189Z,14.01
2022-12-31T07:29:52.302Z,14.11
2022-12-31T07:30:52.581Z,14.16
2022-12-31T07:31:52.531Z,14.22
2022-12-31T07:32:52.659Z,14.23
2022-12-31T07:33:52.761Z,14.25
2022-12-31T07:34:52.897Z,14.22
2022-12-31T07:35:53.011Z,14.25
2022-12-31T07:36:53.140Z,14.26
2022-12-31T07:37:53.239Z,14.26
2022-12-31T07:38:53.359Z,14.28
2022-12-31T07:39:53.474Z,14.31
2022-12-31T07:40:53.592Z,14.33
2022-12-31T07:41:53.720Z,14.34
2022-12-31T07:42:53.821Z,14.34
2022-12-31T07:43:53.937Z,14.36
2022-12-31T07:44:54.048Z,14.37
2022-12-31T07:45:54.158Z,14.38
2022-12-31T07:46:54.297Z,14.41
2022-12-31T07:48:00.517Z,14.41
2022-12-31T07:48:55.474Z,14.41
2022-12-31T07:49:54.578Z,14.41
2022-12-31T07:50:54.716Z,14.43
2022-12-31T07:51:54.845Z,14.56
2022-12-31T07:52:54.947Z,14.63
2022-12-31T07:53:55.077Z,14.62
2022-12-31T07:54:55.185Z,14.59
2022-12-31T07:55:55.313Z,14.59
2022-12-31T07:56:55.434Z,14.59
2022-12-31T07:57:55.556Z,14.59
2022-12-31T07:58:55.655Z,14.59
2022-12-31T07:59:55.759Z,14.61
2022-12-31T08:00:56.027Z,14.58
2022-12-31T08:01:56.129Z,14.59
2022-12-31T08:02:56.142Z,14.66
2022-12-31T08:03:56.142Z,14.66
2022-12-31T08:04:56.257Z,14.66
2022-12-31T08:05:56.365Z,14.68
2022-12-31T08:06:56.507Z,14.74
2022-12-31T08:07:56.631Z,14.77
2022-12-31T08:08:56.753Z,14.79
2022-12-31T08:09:56.848Z,14.81
2022-12-31T08:10:56.985Z,14.85
2022-12-31T08:11:57.094Z,14.87
2022-12-31T08:12:57.224Z,14.90
2022-12-31T08:13:57.345Z,14.92
2022-12-31T08:14:57.466Z,14.97
2022-12-31T08:15:57.602Z,14.99
2022-12-31T08:16:57.731Z,15.02
2022-12-31T08:17:57.843Z,15.05
2022-12-31T08:18:57.959Z,15.05
2022-12-31T08:19:58.068Z,15.00
2022-12-31T08:20:58.183Z,15.00
2022-12-31T08:22:05.328Z,15.00
2022-12-31T08:22:58.433Z,15.05
2022-12-31T08:24:01.244Z,15.08
2022-12-31T08:24:58.696Z,15.11
2022-12-31T08:25:58.838Z,15.10
2022-12-31T08:26:58.955Z,15.10
2022-12-31T08:27:59.077Z,15.11
2022-12-31T08:28:59.197Z,15.10
2022-12-31T08:29:59.315Z,15.11
2022-12-31T08:30:59.435Z,15.11
2022-12-31T08:31:59.587Z,15.10
2022-12-31T08:32:59.713Z,15.12
2022-12-31T08:34:05.577Z,15.15
2022-12-31T08:35:00.912Z,15.18
2022-12-31T08:36:00.056Z,15.22
2022-12-31T08:37:00.181Z,15.22
2022-12-31T08:38:00.291Z,15.26
2022-12-31T08:39:00.416Z,15.26
2022-12-31T08:40:00.538Z,15.30
2022-12-31T08:41:00.736Z,15.29
2022-12-31T08:42:00.859Z,15.29
2022-12-31T08:43:00.977Z,15.30
2022-12-31T08:44:01.104Z,15.30
2022-12-31T08:45:01.237Z,15.29
2022-12-31T08:46:01.462Z,15.29
2022-12-31T08:47:01.418Z,15.33
2022-12-31T08:48:01.551Z,15.35
2022-12-31T08:49:01.669Z,15.43
2022-12-31T08:50:01.767Z,15.51
2022-12-31T08:51:01.898Z,15.52
2022-12-31T08:52:01.999Z,15.54
2022-12-31T08:53:02.125Z,15.55
2022-12-31T08:54:02.258Z,15.55
2022-12-31T08:55:02.346Z,15.59
2022-12-31T08:56:02.462Z,15.59
2022-12-31T08:57:02.572Z,15.60
2022-12-31T08:58:02.698Z,15.62
2022-12-31T08:59:02.814Z,15.67
2022-12-31T09:00:02.925Z,15.67
2022-12-31T09:01:03.137Z,15.66
2022-12-31T09:02:03.225Z,15.65
2022-12-31T09:03:03.337Z,15.66
2022-12-31T09:04:03.523Z,15.67
2022-12-31T09:05:03.609Z,15.69
2022-12-31T09:06:03.716Z,15.65
2022-12-31T09:07:03.856Z,15.66
2022-12-31T09:08:03.965Z,15.65
2022-12-31T09:09:04.053Z,15.62
2022-12-31T09:10:04.166Z,15.62
2022-12-31T09:11:04.297Z,15.65
2022-12-31T09:12:04.435Z,15.65
2022-12-31T09:13:04.573Z,15.67
2022-12-31T09:14:04.708Z,15.69
2022-12-31T09:15:04.820Z,15.72
2022-12-31T09:16:04.984Z,15.75
2022-12-31T09:17:05.030Z,15.81
2022-12-31T09:18:05.149Z,15.81
2022-12-31T09:19:05.277Z,15.81
2022-12-31T09:20:05.341Z,15.80
2022-12-31T09:21:05.468Z,15.83
2022-12-31T09:22:05.566Z,15.85
2022-12-31T09:23:05.708Z,15.90
2022-12-31T09:24:09.347Z,15.96
2022-12-31T09:25:05.995Z,16.22
2022-12-31T09:26:06.135Z,16.49
2022-12-31T09:27:06.203Z,16.61
2022-12-31T09:28:06.297Z,16.69
2022-12-31T09:29:06.417Z,16.69
2022-12-31T09:30:06.527Z,16.84
2022-12-31T09:31:06.619Z,17.10
2022-12-31T09:32:06.734Z,17.16
2022-12-31T09:33:06.883Z,17.28
2022-12-31T09:34:06.866Z,17.80
2022-12-31T09:35:06.961Z,18.34
2022-12-31T09:36:07.046Z,18.66
2022-12-31T09:37:07.172Z,18.98
2022-12-31T09:38:11.391Z,19.26
2022-12-31T09:39:07.413Z,19.41
2022-12-31T09:40:07.518Z,19.45
2022-12-31T09:41:07.607Z,19.47
2022-12-31T09:42:07.698Z,18.97
2022-12-31T09:43:07.815Z,18.68
2022-12-31T09:44:07.941Z,18.60
2022-12-31T09:45:08.064Z,18.19
2022-12-31T09:46:08.227Z,18.37
2022-12-31T09:47:08.216Z,18.03
2022-12-31T09:48:08.325Z,17.79
2022-12-31T09:49:08.455Z,18.06
2022-12-31T09:50:08.418Z,17.90
2022-12-31T09:51:08.508Z,17.87
2022-12-31T09:52:08.566Z,18.37
2022-12-31T09:53:08.656Z,18.67
2022-12-31T09:54:08.785Z,19.15
2022-12-31T09:55:08.780Z,19.39
2022-12-31T09:56:08.861Z,19.24
2022-12-31T09:57:08.911Z,19.05
2022-12-31T09:58:09.008Z,19.09
2022-12-31T09:59:09.091Z,19.41
2022-12-31T10:00:09.143Z,19.26
2022-12-31T10:01:09.356Z,19.22
2022-12-31T10:02:09.436Z,19.08
2022-12-31T10:03:09.392Z,18.91
2022-12-31T10:04:09.484Z,18.67
2022-12-31T10:05:09.569Z,18.43
2022-12-31T10:06:09.653Z,18.21
2022-12-31T10:07:09.725Z,18.11
2022-12-31T10:08:09.806Z,18.00
2022-12-31T10:09:09.914Z,17.88
2022-12-31T10:10:10.042Z,17.79
2022-12-31T10:11:10.025Z,17.73
2022-12-31T10:12:10.084Z,17.68
2022-12-31T10:13:10.170Z,17.69
2022-12-31T10:14:10.249Z,17.66
2022-12-31T10:15:10.343Z,17.66
2022-12-31T10:16:10.420Z,17.68
2022-12-31T10:17:10.572Z,17.75
2022-12-31T10:18:10.538Z,17.84
2022-12-31T10:19:11.385Z,18.05
2022-12-31T10:20:10.685Z,18.21
2022-12-31T10:21:10.783Z,18.48
2022-12-31T10:22:10.919Z,18.30
2022-12-31T10:23:11.015Z,18.21
2022-12-31T10:24:11.109Z,18.08
2022-12-31T10:25:11.202Z,17.97
2022-12-31T10:26:11.286Z,17.90
2022-12-31T10:27:11.374Z,17.86
2022-12-31T10:28:11.454Z,17.82
2022-12-31T10:29:11.566Z,17.82
2022-12-31T10:30:11.640Z,17.79
2022-12-31T10:31:11.823Z,17.79
2022-12-31T10:32:11.809Z,17.75
2022-12-31T10:33:11.904Z,17.73
2022-12-31T10:34:11.996Z,17.73
2022-12-31T10:35:12.128Z,17.75
2022-12-31T10:36:12.208Z,17.75
2022-12-31T10:37:12.304Z,17.75
2022-12-31T10:38:12.387Z,17.73
2022-12-31T10:39:15.448Z,17.72
2022-12-31T10:40:13.507Z,17.71
2022-12-31T10:41:12.600Z,17.75
2022-12-31T10:42:12.694Z,17.79
2022-12-31T10:43:12.800Z,17.82
2022-12-31T10:44:12.904Z,17.86
2022-12-31T10:45:13.004Z,17.87
2022-12-31T10:46:16.371Z,17.87
2022-12-31T10:47:14.159Z,17.88
2022-12-31T10:48:13.251Z,17.84
2022-12-31T10:49:13.360Z,17.78
2022-12-31T10:50:13.461Z,17.76
2022-12-31T10:51:13.561Z,17.75
2022-12-31T10:52:13.659Z,17.75
2022-12-31T10:53:13.746Z,17.72
2022-12-31T10:54:13.868Z,17.72
2022-12-31T10:55:13.971Z,17.68
2022-12-31T10:56:14.051Z,17.68
2022-12-31T10:57:14.167Z,17.66
2022-12-31T10:58:14.273Z,17.63
2022-12-31T10:59:14.382Z,17.57
2022-12-31T11:00:14.481Z,17.56
2022-12-31T11:01:14.735Z,17.56
2022-12-31T11:02:14.718Z,17.53
2022-12-31T11:03:14.723Z,17.49
2022-12-31T11:04:14.748Z,17.46
2022-12-31T11:05:14.828Z,17.42
2022-12-31T11:06:14.920Z,17.37
2022-12-31T11:07:15.026Z,17.30
2022-12-31T11:08:15.134Z,17.24
2022-12-31T11:09:15.251Z,17.20
2022-12-31T11:10:15.431Z,17.17
2022-12-31T11:11:15.476Z,17.16
2022-12-31T11:12:15.580Z,17.22
2022-12-31T11:13:15.681Z,17.22
2022-12-31T11:14:15.819Z,17.23
2022-12-31T11:15:15.930Z,17.23
2022-12-31T11:16:16.039Z,17.24
2022-12-31T11:17:16.157Z,17.24
2022-12-31T11:18:16.266Z,17.27
2022-12-31T11:19:16.738Z,17.31
2022-12-31T11:20:16.509Z,17.32
2022-12-31T11:21:16.579Z,17.31
2022-12-31T11:22:16.689Z,17.32
2022-12-31T11:23:16.780Z,17.34
2022-12-31T11:24:16.913Z,17.35
2022-12-31T11:25:16.999Z,17.37
2022-12-31T11:26:17.115Z,17.37
2022-12-31T11:27:17.209Z,17.39
2022-12-31T11:28:17.304Z,17.39
2022-12-31T11:29:17.418Z,17.41
2022-12-31T11:30:17.507Z,17.42
2022-12-31T11:31:17.672Z,17.42
2022-12-31T11:32:17.657Z,17.46
2022-12-31T11:33:17.761Z,17.46
2022-12-31T11:34:17.886Z,17.47
2022-12-31T11:35:17.975Z,17.49
2022-12-31T11:36:18.079Z,17.50
2022-12-31T11:37:18.178Z,17.53
2022-12-31T11:38:18.267Z,17.57
2022-12-31T11:39:18.371Z,17.63
2022-12-31T11:40:18.473Z,17.71
2022-12-31T11:41:18.566Z,17.90
2022-12-31T11:42:18.687Z,17.95
2022-12-31T11:43:18.785Z,18.02
2022-12-31T11:44:18.900Z,18.02
2022-12-31T11:45:18.994Z,18.00
2022-12-31T11:46:19.158Z,17.95
2022-12-31T11:47:19.193Z,17.98
2022-12-31T11:48:34.727Z,17.97
2022-12-31T11:49:20.368Z,17.95
2022-12-31T11:50:19.476Z,17.95
2022-12-31T11:51:19.594Z,17.98
2022-12-31T11:52:21.793Z,17.97
2022-12-31T11:53:19.710Z,18.00
2022-12-31T11:54:19.822Z,18.02
2022-12-31T11:55:19.903Z,18.08
2022-12-31T11:56:20.046Z,18.11
2022-12-31T11:57:20.124Z,18.16
2022-12-31T11:58:20.225Z,18.19
2022-12-31T11:59:20.307Z,18.24
2022-12-31T12:00:20.423Z,18.33
2022-12-31T12:01:20.545Z,18.33
2022-12-31T12:02:20.682Z,18.28
2022-12-31T12:03:20.777Z,18.33
2022-12-31T12:04:20.885Z,18.33
2022-12-31T12:05:20.970Z,18.36
2022-12-31T12:06:21.073Z,18.34
2022-12-31T12:07:21.164Z,18.39
2022-12-31T12:08:21.271Z,18.39
2022-12-31T12:09:21.362Z,18.43
2022-12-31T12:10:21.460Z,18.43
2022-12-31T12:11:21.576Z,18.48
2022-12-31T12:12:21.653Z,18.52
2022-12-31T12:13:21.731Z,18.57
2022-12-31T12:14:21.881Z,18.60
2022-12-31T12:15:21.965Z,18.63
2022-12-31T12:16:22.109Z,18.68
2022-12-31T12:17:22.192Z,18.70
2022-12-31T12:18:22.284Z,18.68
2022-12-31T12:19:22.368Z,18.67
2022-12-31T12:20:22.457Z,18.61
2022-12-31T12:21:22.571Z,18.60
2022-12-31T12:22:22.636Z,18.58
2022-12-31T12:23:22.733Z,18.55
2022-12-31T12:24:22.840Z,18.52
2022-12-31T12:25:22.915Z,18.51
2022-12-31T12:26:23.016Z,18.49
2022-12-31T12:27:23.110Z,18.48
2022-12-31T12:28:23.202Z,18.48
2022-12-31T12:29:23.291Z,18.46
2022-12-31T12:30:23.383Z,18.49
2022-12-31T12:31:23.529Z,18.51
2022-12-31T12:32:23.518Z,18.52
2022-12-31T12:33:23.611Z,18.49
2022-12-31T12:34:23.726Z,18.48
2022-12-31T12:35:23.815Z,18.49
2022-12-31T12:36:23.913Z,18.48
2022-12-31T12:37:23.998Z,18.49
2022-12-31T12:38:24.107Z,18.48
2022-12-31T12:39:24.193Z,18.49
2022-12-31T12:40:31.427Z,18.49
2022-12-31T12:41:25.379Z,18.48
2022-12-31T12:42:24.403Z,18.46
2022-12-31T12:43:24.494Z,18.43
2022-12-31T12:44:24.597Z,18.43
2022-12-31T12:45:24.709Z,18.42
2022-12-31T12:46:24.826Z,18.43
2022-12-31T12:47:24.902Z,18.48
2022-12-31T12:48:25.007Z,18.46
2022-12-31T12:49:25.099Z,18.45
2022-12-31T12:50:25.192Z,18.42
2022-12-31T12:51:25.280Z,18.41
2022-12-31T12:52:25.384Z,18.39
2022-12-31T12:53:25.460Z,18.37
2022-12-31T12:54:25.560Z,18.37
2022-12-31T12:55:25.640Z,18.37
2022-12-31T12:56:25.741Z,18.37